sensor_id;sensor_type;location;lat;lon;timestamp;pressure;altitude;pressure_sealevel;temperature;humidity
59435;BME280;45241;49.768;8.636;2023-02-13T00:02:24;102300.88;;;5.95;92.08
59435;BME280;45241;49.768;8.636;2023-02-13T00:04:49;102316.19;;;5.42;92.78
59435;BME280;45241;49.768;8.636;2023-02-13T00:07:15;102306.06;;;5.21;99.54
59435;BME280;45241;49.768;8.636;2023-02-13T00:09:40;102304.25;;;5.60;95.04
59435;BME280;45241;49.768;8.636;2023-02-13T00:12:06;102305.25;;;5.96;93.25
59435;BME280;45241;49.768;8.636;2023-02-13T00:14:36;102298.63;;;5.89;91.99
59435;BME280;45241;49.768;8.636;2023-02-13T00:17:02;102292.47;;;5.88;92.05
59435;BME280;45241;49.768;8.636;2023-02-13T00:19:28;102296.56;;;5.81;91.57
59435;BME280;45241;49.768;8.636;2023-02-13T00:21:53;102296.09;;;5.87;92.57
59435;BME280;45241;49.768;8.636;2023-02-13T00:24:18;102296.56;;;5.81;91.59
59435;BME280;45241;49.768;8.636;2023-02-13T00:26:44;102298.56;;;5.77;91.24
59435;BME280;45241;49.768;8.636;2023-02-13T00:29:09;102297.28;;;5.83;91.20
59435;BME280;45241;49.768;8.636;2023-02-13T00:31:34;102293.91;;;5.68;92.17
59435;BME280;45241;49.768;8.636;2023-02-13T00:34:00;102293.47;;;5.74;91.88
59435;BME280;45241;49.768;8.636;2023-02-13T00:36:25;102299.91;;;5.46;91.57
59435;BME280;45241;49.768;8.636;2023-02-13T00:38:52;102301.06;;;5.55;90.96
59435;BME280;45241;49.768;8.636;2023-02-13T00:41:18;102301.06;;;5.55;90.94
59435;BME280;45241;49.768;8.636;2023-02-13T00:43:44;102305.44;;;5.56;91.91
59435;BME280;45241;49.768;8.636;2023-02-13T00:46:09;102301.06;;;5.55;91.84
59435;BME280;45241;49.768;8.636;2023-02-13T00:48:35;102308.81;;;5.58;91.07
59435;BME280;45241;49.768;8.636;2023-02-13T00:51:01;102305.72;;;5.64;90.67
59435;BME280;45241;49.768;8.636;2023-02-13T00:53:27;102305.63;;;5.66;92.15
59435;BME280;45241;49.768;8.636;2023-02-13T00:55:52;102300.63;;;5.61;91.41
59435;BME280;45241;49.768;8.636;2023-02-13T00:58:19;102304.69;;;5.67;91.74
59435;BME280;45241;49.768;8.636;2023-02-13T01:00:45;102303.06;;;5.51;91.42
59435;BME280;45241;49.768;8.636;2023-02-13T01:03:14;102301.94;;;5.43;91.76
59435;BME280;45241;49.768;8.636;2023-02-13T01:05:40;102305.28;;;5.70;91.32
59435;BME280;45241;49.768;8.636;2023-02-13T01:08:06;102301.69;;;5.71;91.82
59435;BME280;45241;49.768;8.636;2023-02-13T01:10:31;102304.03;;;5.63;92.02
59435;BME280;45241;49.768;8.636;2023-02-13T01:12:57;102306.16;;;5.58;91.54
59435;BME280;45241;49.768;8.636;2023-02-13T01:15:22;102299.88;;;5.59;92.29
59435;BME280;45241;49.768;8.636;2023-02-13T01:17:48;102300.66;;;5.10;91.91
59435;BME280;45241;49.768;8.636;2023-02-13T01:20:13;102297.56;;;5.42;92.22
59435;BME280;45241;49.768;8.636;2023-02-13T01:22:39;102296.50;;;5.57;91.02
59435;BME280;45241;49.768;8.636;2023-02-13T01:25:05;102303.63;;;5.57;90.09
59435;BME280;45241;49.768;8.636;2023-02-13T01:27:31;102295.88;;;5.41;90.23
59435;BME280;45241;49.768;8.636;2023-02-13T01:29:57;102295.75;;;5.42;90.46
59435;BME280;45241;49.768;8.636;2023-02-13T01:32:22;102295.53;;;5.45;91.11
59435;BME280;45241;49.768;8.636;2023-02-13T01:34:47;102299.38;;;5.54;90.28
59435;BME280;45241;49.768;8.636;2023-02-13T01:37:13;102298.31;;;5.44;90.50
59435;BME280;45241;49.768;8.636;2023-02-13T01:39:39;102301.81;;;5.44;91.21
59435;BME280;45241;49.768;8.636;2023-02-13T01:42:05;102297.00;;;5.49;90.22
59435;BME280;45241;49.768;8.636;2023-02-13T01:44:51;102295.88;;;5.41;90.97
59435;BME280;45241;49.768;8.636;2023-02-13T01:47:38;102293.00;;;5.31;89.21
59435;BME280;45241;49.768;8.636;2023-02-13T01:50:24;102296.72;;;5.29;89.73
59435;BME280;45241;49.768;8.636;2023-02-13T01:55:42;102290.13;;;5.34;91.00
59435;BME280;45241;49.768;8.636;2023-02-13T01:58:12;102285.13;;;5.30;90.27
59435;BME280;45241;49.768;8.636;2023-02-13T02:00:38;102289.50;;;5.31;89.65
59435;BME280;45241;49.768;8.636;2023-02-13T02:03:11;102292.38;;;5.28;90.59
59435;BME280;45241;49.768;8.636;2023-02-13T02:05:38;102286.72;;;5.32;89.51
59435;BME280;45241;49.768;8.636;2023-02-13T02:08:06;102288.41;;;5.20;89.84
59435;BME280;45241;49.768;8.636;2023-02-13T02:10:35;102290.22;;;5.07;89.42
59435;BME280;45241;49.768;8.636;2023-02-13T02:13:05;102296.50;;;5.06;90.29
59435;BME280;45241;49.768;8.636;2023-02-13T02:15:32;102288.09;;;5.12;89.86
59435;BME280;45241;49.768;8.636;2023-02-13T02:17:57;102289.78;;;5.13;90.15
59435;BME280;45241;49.768;8.636;2023-02-13T02:21:01;102285.88;;;5.19;90.56
59435;BME280;45241;49.768;8.636;2023-02-13T02:23:46;102289.38;;;5.19;90.06
59435;BME280;45241;49.768;8.636;2023-02-13T02:29:32;102280.03;;;5.14;89.46
59435;BME280;45241;49.768;8.636;2023-02-13T02:35:15;102282.38;;;5.06;91.44
59435;BME280;45241;49.768;8.636;2023-02-13T02:40:39;102274.50;;;5.30;91.63
59435;BME280;45241;49.768;8.636;2023-02-13T02:43:20;102272.81;;;5.16;92.78
59435;BME280;45241;49.768;8.636;2023-02-13T02:46:11;102274.91;;;5.23;92.03
59435;BME280;45241;49.768;8.636;2023-02-13T02:49:03;102273.84;;;5.13;92.84
59435;BME280;45241;49.768;8.636;2023-02-13T02:54:48;102269.72;;;3.90;100.00
59435;BME280;45241;49.768;8.636;2023-02-13T02:57:33;102267.31;;;3.73;100.00
59435;BME280;45241;49.768;8.636;2023-02-13T03:00:21;102270.63;;;3.62;100.00
59435;BME280;45241;49.768;8.636;2023-02-13T03:03:19;102275.09;;;4.03;100.00
59435;BME280;45241;49.768;8.636;2023-02-13T03:06:11;102270.84;;;4.00;100.00
59435;BME280;45241;49.768;8.636;2023-02-13T03:08:45;102269.28;;;4.38;100.00
59435;BME280;45241;49.768;8.636;2023-02-13T03:11:34;102263.72;;;4.28;100.00
59435;BME280;45241;49.768;8.636;2023-02-13T03:14:19;102274.44;;;4.53;100.00
59435;BME280;45241;49.768;8.636;2023-02-13T03:16:45;102270.63;;;4.83;100.00
59435;BME280;45241;49.768;8.636;2023-02-13T03:23:06;102272.25;;;5.11;98.08
59435;BME280;45241;49.768;8.636;2023-02-13T03:31:30;102273.59;;;4.65;98.65
59435;BME280;45241;49.768;8.636;2023-02-13T03:34:11;102276.78;;;4.71;98.91
59435;BME280;45241;49.768;8.636;2023-02-13T03:40:01;102284.78;;;4.96;98.35
59435;BME280;45241;49.768;8.636;2023-02-13T03:42:36;102287.06;;;5.02;97.80
59435;BME280;45241;49.768;8.636;2023-02-13T03:47:50;102284.91;;;4.94;100.00
59435;BME280;45241;49.768;8.636;2023-02-13T03:50:17;102285.88;;;5.06;98.67
59435;BME280;45241;49.768;8.636;2023-02-13T03:52:52;102283.84;;;5.10;99.38
59435;BME280;45241;49.768;8.636;2023-02-13T03:55:24;102280.09;;;4.87;100.00
59435;BME280;45241;49.768;8.636;2023-02-13T03:58:18;102283.31;;;5.05;99.91
59435;BME280;45241;49.768;8.636;2023-02-13T04:01:07;102284.47;;;4.75;100.00
59435;BME280;45241;49.768;8.636;2023-02-13T04:06:09;102283.41;;;4.38;100.00
59435;BME280;45241;49.768;8.636;2023-02-13T04:08:35;102283.19;;;4.93;100.00
59435;BME280;45241;49.768;8.636;2023-02-13T04:13:34;102278.75;;;5.19;100.00
59435;BME280;45241;49.768;8.636;2023-02-13T04:16:08;102282.13;;;5.34;100.00
59435;BME280;45241;49.768;8.636;2023-02-13T04:18:35;102284.28;;;5.42;100.00
59435;BME280;45241;49.768;8.636;2023-02-13T04:21:06;102280.88;;;5.40;99.97
59435;BME280;45241;49.768;8.636;2023-02-13T04:23:32;102281.28;;;5.34;100.00
59435;BME280;45241;49.768;8.636;2023-02-13T04:25:59;102285.03;;;5.31;100.00
59435;BME280;45241;49.768;8.636;2023-02-13T04:28:26;102283.94;;;5.34;99.33
59435;BME280;45241;49.768;8.636;2023-02-13T04:30:51;102283.53;;;5.27;97.14
59435;BME280;45241;49.768;8.636;2023-02-13T04:33:16;102280.44;;;5.20;97.32
59435;BME280;45241;49.768;8.636;2023-02-13T04:35:42;102279.59;;;5.20;97.62
59435;BME280;45241;49.768;8.636;2023-02-13T04:38:07;102286.28;;;5.25;99.32
59435;BME280;45241;49.768;8.636;2023-02-13T04:40:32;102287.22;;;5.37;100.00
59435;BME280;45241;49.768;8.636;2023-02-13T04:42:58;102285.53;;;5.36;98.48
59435;BME280;45241;49.768;8.636;2023-02-13T04:45:23;102289.03;;;5.49;100.00
59435;BME280;45241;49.768;8.636;2023-02-13T04:47:50;102277.03;;;5.44;100.00
59435;BME280;45241;49.768;8.636;2023-02-13T04:50:16;102280.44;;;5.46;100.00
59435;BME280;45241;49.768;8.636;2023-02-13T04:52:42;102272.84;;;5.52;100.00
59435;BME280;45241;49.768;8.636;2023-02-13T04:55:07;102270.56;;;5.22;100.00
59435;BME280;45241;49.768;8.636;2023-02-13T04:57:33;102275.84;;;5.35;100.00
59435;BME280;45241;49.768;8.636;2023-02-13T04:59:58;102268.09;;;5.45;100.00
59435;BME280;45241;49.768;8.636;2023-02-13T05:02:23;102264.47;;;5.46;100.00
59435;BME280;45241;49.768;8.636;2023-02-13T05:04:49;102269.44;;;5.50;100.00
59435;BME280;45241;49.768;8.636;2023-02-13T05:07:14;102264.22;;;5.62;100.00
59435;BME280;45241;49.768;8.636;2023-02-13T05:09:39;102276.59;;;5.37;100.00
59435;BME280;45241;49.768;8.636;2023-02-13T05:12:05;102268.09;;;5.19;100.00
59435;BME280;45241;49.768;8.636;2023-02-13T05:14:30;102264.13;;;5.50;100.00
59435;BME280;45241;49.768;8.636;2023-02-13T05:16:55;102275.50;;;5.52;100.00
59435;BME280;45241;49.768;8.636;2023-02-13T05:19:21;102265.78;;;5.40;100.00
59435;BME280;45241;49.768;8.636;2023-02-13T05:21:46;102264.47;;;5.33;100.00
59435;BME280;45241;49.768;8.636;2023-02-13T05:24:30;102266.28;;;5.45;100.00
59435;BME280;45241;49.768;8.636;2023-02-13T05:26:55;102261.06;;;5.44;100.00
59435;BME280;45241;49.768;8.636;2023-02-13T05:29:21;102263.00;;;5.42;100.00
59435;BME280;45241;49.768;8.636;2023-02-13T05:31:52;102266.06;;;5.48;100.00
59435;BME280;45241;49.768;8.636;2023-02-13T05:34:19;102257.13;;;5.49;100.00
59435;BME280;45241;49.768;8.636;2023-02-13T05:36:45;102260.19;;;5.56;100.00
59435;BME280;45241;49.768;8.636;2023-02-13T05:39:11;102253.81;;;5.46;100.00
59435;BME280;45241;49.768;8.636;2023-02-13T05:41:37;102257.66;;;5.54;100.00
59435;BME280;45241;49.768;8.636;2023-02-13T05:44:03;102253.59;;;5.49;100.00
59435;BME280;45241;49.768;8.636;2023-02-13T05:46:28;102257.66;;;5.54;100.00
59435;BME280;45241;49.768;8.636;2023-02-13T05:48:53;102256.16;;;5.50;100.00
59435;BME280;45241;49.768;8.636;2023-02-13T05:51:19;102257.44;;;5.45;100.00
59435;BME280;45241;49.768;8.636;2023-02-13T05:53:44;102259.88;;;5.48;100.00
59435;BME280;45241;49.768;8.636;2023-02-13T05:56:10;102263.97;;;5.41;100.00
59435;BME280;45241;49.768;8.636;2023-02-13T05:58:35;102265.56;;;5.31;100.00
59435;BME280;45241;49.768;8.636;2023-02-13T06:01:01;102265.34;;;5.08;100.00
59435;BME280;45241;49.768;8.636;2023-02-13T06:03:28;102258.09;;;4.85;100.00
59435;BME280;45241;49.768;8.636;2023-02-13T06:05:54;102258.50;;;4.66;100.00
59435;BME280;45241;49.768;8.636;2023-02-13T06:08:20;102266.19;;;4.96;100.00
59435;BME280;45241;49.768;8.636;2023-02-13T06:10:46;102260.88;;;5.09;100.00
59435;BME280;45241;49.768;8.636;2023-02-13T06:13:11;102256.97;;;5.14;100.00
59435;BME280;45241;49.768;8.636;2023-02-13T06:15:38;102258.09;;;5.10;100.00
59435;BME280;45241;49.768;8.636;2023-02-13T06:18:03;102263.00;;;5.04;100.00
59435;BME280;45241;49.768;8.636;2023-02-13T06:20:28;102261.63;;;5.23;100.00
59435;BME280;45241;49.768;8.636;2023-02-13T06:22:54;102265.00;;;5.00;100.00
59435;BME280;45241;49.768;8.636;2023-02-13T06:25:20;102263.22;;;4.88;100.00
59435;BME280;45241;49.768;8.636;2023-02-13T06:27:46;102267.88;;;4.97;100.00
59435;BME280;45241;49.768;8.636;2023-02-13T06:30:12;102266.19;;;5.09;100.00
59435;BME280;45241;49.768;8.636;2023-02-13T06:32:38;102265.97;;;5.24;100.00
59435;BME280;45241;49.768;8.636;2023-02-13T06:35:04;102274.59;;;5.28;100.00
59435;BME280;45241;49.768;8.636;2023-02-13T06:37:29;102270.53;;;5.35;100.00
59435;BME280;45241;49.768;8.636;2023-02-13T06:39:54;102272.91;;;5.40;100.00
59435;BME280;45241;49.768;8.636;2023-02-13T06:42:20;102279.94;;;5.15;100.00
59435;BME280;45241;49.768;8.636;2023-02-13T06:44:46;102273.75;;;5.28;100.00
59435;BME280;45241;49.768;8.636;2023-02-13T06:47:11;102268.75;;;5.23;100.00
59435;BME280;45241;49.768;8.636;2023-02-13T06:49:36;102274.28;;;5.07;99.63
59435;BME280;45241;49.768;8.636;2023-02-13T06:52:01;102278.31;;;5.00;98.55
59435;BME280;45241;49.768;8.636;2023-02-13T06:54:27;102278.00;;;5.05;100.00
59435;BME280;45241;49.768;8.636;2023-02-13T06:56:52;102273.00;;;5.13;100.00
59435;BME280;45241;49.768;8.636;2023-02-13T06:59:17;102273.66;;;5.29;100.00
59435;BME280;45241;49.768;8.636;2023-02-13T07:01:42;102275.63;;;5.38;100.00
59435;BME280;45241;49.768;8.636;2023-02-13T07:04:08;102279.16;;;5.39;100.00
59435;BME280;45241;49.768;8.636;2023-02-13T07:06:33;102277.25;;;5.41;100.00
59435;BME280;45241;49.768;8.636;2023-02-13T07:09:03;102278.72;;;5.45;100.00
59435;BME280;45241;49.768;8.636;2023-02-13T07:11:29;102280.00;;;5.39;100.00
59435;BME280;45241;49.768;8.636;2023-02-13T07:13:54;102279.16;;;5.26;100.00
59435;BME280;45241;49.768;8.636;2023-02-13T07:16:19;102285.31;;;5.27;100.00
59435;BME280;45241;49.768;8.636;2023-02-13T07:18:45;102283.72;;;5.37;100.00
59435;BME280;45241;49.768;8.636;2023-02-13T07:21:10;102280.22;;;5.36;100.00
59435;BME280;45241;49.768;8.636;2023-02-13T07:23:35;102289.03;;;5.37;100.00
59435;BME280;45241;49.768;8.636;2023-02-13T07:26:01;102297.03;;;5.37;100.00
59435;BME280;45241;49.768;8.636;2023-02-13T07:28:27;102298.09;;;5.21;100.00
59435;BME280;45241;49.768;8.636;2023-02-13T07:30:53;102295.03;;;5.15;100.00
59435;BME280;45241;49.768;8.636;2023-02-13T07:33:18;102296.91;;;5.38;100.00
59435;BME280;45241;49.768;8.636;2023-02-13T07:35:50;102292.75;;;5.47;100.00
59435;BME280;45241;49.768;8.636;2023-02-13T07:38:17;102295.94;;;5.39;100.00
59435;BME280;45241;49.768;8.636;2023-02-13T07:40:43;102296.72;;;5.54;100.00
59435;BME280;45241;49.768;8.636;2023-02-13T07:43:08;102292.34;;;5.53;100.00
59435;BME280;45241;49.768;8.636;2023-02-13T07:45:34;102291.81;;;5.10;100.00
59435;BME280;45241;49.768;8.636;2023-02-13T07:48:00;102284.47;;;5.26;100.00
59435;BME280;45241;49.768;8.636;2023-02-13T07:50:25;102289.16;;;5.35;100.00
59435;BME280;45241;49.768;8.636;2023-02-13T07:52:55;102291.72;;;5.37;100.00
59435;BME280;45241;49.768;8.636;2023-02-13T07:55:21;102291.47;;;5.52;100.00
59435;BME280;45241;49.768;8.636;2023-02-13T07:57:47;102294.25;;;5.51;100.00
59435;BME280;45241;49.768;8.636;2023-02-13T08:00:13;102303.84;;;5.53;100.00
59435;BME280;45241;49.768;8.636;2023-02-13T08:02:39;102302.13;;;5.52;100.00
59435;BME280;45241;49.768;8.636;2023-02-13T08:05:05;102302.34;;;5.49;100.00
59435;BME280;45241;49.768;8.636;2023-02-13T08:07:31;102293.28;;;5.52;100.00
59435;BME280;45241;49.768;8.636;2023-02-13T08:09:56;102295.59;;;5.82;100.00
59435;BME280;45241;49.768;8.636;2023-02-13T08:12:40;102300.78;;;5.83;100.00
59435;BME280;45241;49.768;8.636;2023-02-13T08:15:08;102304.84;;;6.13;99.55
59435;BME280;45241;49.768;8.636;2023-02-13T08:17:33;102305.34;;;6.31;97.78
59435;BME280;45241;49.768;8.636;2023-02-13T08:19:59;102299.53;;;6.37;96.28
59435;BME280;45241;49.768;8.636;2023-02-13T08:22:24;102304.69;;;6.51;96.32
59435;BME280;45241;49.768;8.636;2023-02-13T08:24:49;102302.75;;;6.53;96.88
59435;BME280;45241;49.768;8.636;2023-02-13T08:27:14;102308.97;;;6.65;97.12
59435;BME280;45241;49.768;8.636;2023-02-13T08:29:40;102310.31;;;6.59;98.47
59435;BME280;45241;49.768;8.636;2023-02-13T08:32:05;102305.88;;;6.71;97.10
59435;BME280;45241;49.768;8.636;2023-02-13T08:34:31;102308.97;;;6.65;97.70
59435;BME280;45241;49.768;8.636;2023-02-13T08:36:56;102305.88;;;6.71;98.47
59435;BME280;45241;49.768;8.636;2023-02-13T08:39:21;102309.41;;;6.83;98.08
59435;BME280;45241;49.768;8.636;2023-02-13T08:41:47;102310.53;;;6.91;96.84
59435;BME280;45241;49.768;8.636;2023-02-13T08:44:12;102305.84;;;7.06;96.66
59435;BME280;45241;49.768;8.636;2023-02-13T08:46:37;102312.78;;;7.20;95.44
59435;BME280;45241;49.768;8.636;2023-02-13T08:49:03;102312.03;;;7.07;98.41
59435;BME280;45241;49.768;8.636;2023-02-13T08:51:28;102300.84;;;7.37;97.85
59435;BME280;45241;49.768;8.636;2023-02-13T08:53:53;102306.88;;;7.27;96.22
59435;BME280;45241;49.768;8.636;2023-02-13T08:56:18;102298.41;;;7.67;95.41
59435;BME280;45241;49.768;8.636;2023-02-13T08:58:47;102290.38;;;7.89;93.38
59435;BME280;45241;49.768;8.636;2023-02-13T09:01:13;102301.66;;;7.26;97.61
59435;BME280;45241;49.768;8.636;2023-02-13T09:03:38;102303.75;;;7.67;96.96
59435;BME280;45241;49.768;8.636;2023-02-13T09:06:03;102304.22;;;7.50;97.93
59435;BME280;45241;49.768;8.636;2023-02-13T09:08:29;102306.28;;;7.69;97.68
59435;BME280;45241;49.768;8.636;2023-02-13T09:11:00;102301.47;;;8.17;94.04
59435;BME280;45241;49.768;8.636;2023-02-13T09:13:27;102304.31;;;7.82;97.21
59435;BME280;45241;49.768;8.636;2023-02-13T09:15:52;102306.25;;;8.02;94.75
59435;BME280;45241;49.768;8.636;2023-02-13T09:18:18;102297.91;;;8.60;91.75
59435;BME280;45241;49.768;8.636;2023-02-13T09:20:43;102293.56;;;8.59;89.67
59435;BME280;45241;49.768;8.636;2023-02-13T09:23:08;102299.06;;;8.14;94.32
59435;BME280;45241;49.768;8.636;2023-02-13T09:25:33;102297.31;;;9.09;90.91
59435;BME280;45241;49.768;8.636;2023-02-13T09:27:59;102294.47;;;9.31;88.45
59435;BME280;45241;49.768;8.636;2023-02-13T09:30:24;102294.75;;;9.07;88.67
59435;BME280;45241;49.768;8.636;2023-02-13T09:32:53;102295.41;;;8.79;92.89
59435;BME280;45241;49.768;8.636;2023-02-13T09:35:19;102297.56;;;9.06;90.50
59435;BME280;45241;49.768;8.636;2023-02-13T09:37:45;102301.59;;;9.00;89.78
59435;BME280;45241;49.768;8.636;2023-02-13T09:42:42;102293.31;;;9.95;84.14
59435;BME280;45241;49.768;8.636;2023-02-13T09:45:10;102289.75;;;10.35;81.90
59435;BME280;45241;49.768;8.636;2023-02-13T09:47:42;102290.91;;;9.21;85.50
59435;BME280;45241;49.768;8.636;2023-02-13T09:50:18;102291.47;;;9.46;86.89
59435;BME280;45241;49.768;8.636;2023-02-13T09:52:47;102299.47;;;9.76;85.51
59435;BME280;45241;49.768;8.636;2023-02-13T09:55:42;102301.38;;;9.55;87.29
59435;BME280;45241;49.768;8.636;2023-02-13T09:58:37;102301.91;;;9.28;85.47
59435;BME280;45241;49.768;8.636;2023-02-13T10:01:14;102299.84;;;9.31;84.59
59435;BME280;45241;49.768;8.636;2023-02-13T10:03:47;102295.69;;;10.38;81.45
59435;BME280;45241;49.768;8.636;2023-02-13T10:06:38;102298.19;;;10.30;80.60
59435;BME280;45241;49.768;8.636;2023-02-13T10:09:29;102294.97;;;10.55;79.16
59435;BME280;45241;49.768;8.636;2023-02-13T10:12:15;102298.31;;;10.96;80.08
59435;BME280;45241;49.768;8.636;2023-02-13T10:14:53;102292.44;;;10.64;78.41
59435;BME280;45241;49.768;8.636;2023-02-13T10:17:27;102293.41;;;10.24;82.56
59435;BME280;45241;49.768;8.636;2023-02-13T10:19:56;102289.44;;;10.47;81.34
59435;BME280;45241;49.768;8.636;2023-02-13T10:22:38;102293.13;;;10.75;80.17
59435;BME280;45241;49.768;8.636;2023-02-13T10:25:11;102292.88;;;10.49;80.75
59435;BME280;45241;49.768;8.636;2023-02-13T10:27:45;102288.88;;;10.34;80.37
59435;BME280;45241;49.768;8.636;2023-02-13T10:30:23;102291.16;;;10.68;81.53
59435;BME280;45241;49.768;8.636;2023-02-13T10:33:11;102286.09;;;10.74;79.34
59435;BME280;45241;49.768;8.636;2023-02-13T10:35:52;102286.09;;;10.65;79.99
59435;BME280;45241;49.768;8.636;2023-02-13T10:38:21;102288.19;;;10.90;78.25
59435;BME280;45241;49.768;8.636;2023-02-13T10:40:58;102285.09;;;10.56;78.35
59435;BME280;45241;49.768;8.636;2023-02-13T10:43:29;102275.16;;;10.95;77.16
59435;BME280;45241;49.768;8.636;2023-02-13T10:49:16;102278.91;;;11.31;76.26
59435;BME280;45241;49.768;8.636;2023-02-13T10:52:06;102272.84;;;11.66;74.96
59435;BME280;45241;49.768;8.636;2023-02-13T10:57:33;102274.53;;;11.67;74.41
59435;BME280;45241;49.768;8.636;2023-02-13T11:00:17;102262.88;;;12.04;73.31
59435;BME280;45241;49.768;8.636;2023-02-13T11:02:45;102256.13;;;12.53;71.16
59435;BME280;45241;49.768;8.636;2023-02-13T11:05:22;102258.84;;;11.63;73.58
59435;BME280;45241;49.768;8.636;2023-02-13T11:07:49;102263.78;;;12.13;72.67
59435;BME280;45241;49.768;8.636;2023-02-13T11:10:23;102253.28;;;11.74;72.80
59435;BME280;45241;49.768;8.636;2023-02-13T11:12:49;102254.34;;;11.91;73.01
59435;BME280;45241;49.768;8.636;2023-02-13T11:15:30;102251.91;;;12.33;71.17
59435;BME280;45241;49.768;8.636;2023-02-13T11:18:00;102247.44;;;12.42;71.94
59435;BME280;45241;49.768;8.636;2023-02-13T11:20:34;102240.75;;;12.10;68.91
59435;BME280;45241;49.768;8.636;2023-02-13T11:28:24;102238.00;;;13.33;65.99
59435;BME280;45241;49.768;8.636;2023-02-13T11:30:51;102233.31;;;13.01;66.79
59435;BME280;45241;49.768;8.636;2023-02-13T11:35:44;102232.78;;;13.66;62.69
59435;BME280;45241;49.768;8.636;2023-02-13T11:40:44;102228.91;;;13.60;65.19
59435;BME280;45241;49.768;8.636;2023-02-13T11:45:42;102218.72;;;13.88;61.36
59435;BME280;45241;49.768;8.636;2023-02-13T11:48:19;102213.31;;;13.88;61.32
59435;BME280;45241;49.768;8.636;2023-02-13T11:50:51;102219.47;;;14.63;61.21
59435;BME280;45241;49.768;8.636;2023-02-13T11:53:20;102217.50;;;15.68;58.47
59435;BME280;45241;49.768;8.636;2023-02-13T11:56:13;102215.56;;;15.54;56.99
59435;BME280;45241;49.768;8.636;2023-02-13T11:58:39;102214.94;;;14.40;58.72
59435;BME280;45241;49.768;8.636;2023-02-13T12:04:04;102215.78;;;14.40;58.67
59435;BME280;45241;49.768;8.636;2023-02-13T12:06:31;102215.19;;;13.45;60.69
59435;BME280;45241;49.768;8.636;2023-02-13T12:09:07;102210.16;;;14.17;59.68
59435;BME280;45241;49.768;8.636;2023-02-13T12:11:43;102205.44;;;14.76;58.20
59435;BME280;45241;49.768;8.636;2023-02-13T12:14:13;102206.91;;;15.11;56.90
59435;BME280;45241;49.768;8.636;2023-02-13T12:16:44;102208.16;;;14.35;58.12
59435;BME280;45241;49.768;8.636;2023-02-13T12:19:20;102202.38;;;15.59;59.29
59435;BME280;45241;49.768;8.636;2023-02-13T12:27:41;102185.88;;;14.74;57.14
59435;BME280;45241;49.768;8.636;2023-02-13T12:35:42;102194.69;;;14.68;57.43
59435;BME280;45241;49.768;8.636;2023-02-13T12:43:31;102192.44;;;14.96;57.45
59435;BME280;45241;49.768;8.636;2023-02-13T12:46:09;102182.59;;;15.90;55.89
59435;BME280;45241;49.768;8.636;2023-02-13T12:48:51;102189.19;;;15.87;55.37
59435;BME280;45241;49.768;8.636;2023-02-13T12:56:57;102171.03;;;15.34;56.18
59435;BME280;45241;49.768;8.636;2023-02-13T13:02:36;102166.75;;;15.47;55.24
59435;BME280;45241;49.768;8.636;2023-02-13T13:08:09;102156.28;;;15.83;56.84
59435;BME280;45241;49.768;8.636;2023-02-13T13:10:46;102150.78;;;15.92;55.31
59435;BME280;45241;49.768;8.636;2023-02-13T13:21:16;102139.78;;;15.70;55.24
59435;BME280;45241;49.768;8.636;2023-02-13T13:23:53;102151.25;;;16.79;53.81
59435;BME280;45241;49.768;8.636;2023-02-13T13:26:37;102146.59;;;16.72;54.47
59435;BME280;45241;49.768;8.636;2023-02-13T13:29:05;102141.47;;;17.43;51.72
59435;BME280;45241;49.768;8.636;2023-02-13T13:31:34;102129.63;;;17.29;49.99
59435;BME280;45241;49.768;8.636;2023-02-13T13:34:05;102147.63;;;16.86;53.84
59435;BME280;45241;49.768;8.636;2023-02-13T13:46:47;102129.63;;;17.80;49.69
59435;BME280;45241;49.768;8.636;2023-02-13T13:52:28;102117.97;;;17.65;50.49
59435;BME280;45241;49.768;8.636;2023-02-13T13:54:55;102116.69;;;17.46;50.55
59435;BME280;45241;49.768;8.636;2023-02-13T14:02:43;102116.59;;;17.03;51.83
59435;BME280;45241;49.768;8.636;2023-02-13T14:05:32;102111.13;;;18.12;49.56
59435;BME280;45241;49.768;8.636;2023-02-13T14:08:03;102115.72;;;18.11;49.27
59435;BME280;45241;49.768;8.636;2023-02-13T14:13:29;102111.28;;;18.04;50.02
59435;BME280;45241;49.768;8.636;2023-02-13T14:15:55;102101.16;;;17.55;50.21
59435;BME280;45241;49.768;8.636;2023-02-13T14:18:22;102110.44;;;17.46;50.74
59435;BME280;45241;49.768;8.636;2023-02-13T14:21:00;102101.50;;;17.67;48.87
59435;BME280;45241;49.768;8.636;2023-02-13T14:34:04;102093.91;;;17.98;49.09
59435;BME280;45241;49.768;8.636;2023-02-13T14:36:40;102090.50;;;17.53;50.03
59435;BME280;45241;49.768;8.636;2023-02-13T14:41:45;102089.28;;;18.20;48.92
59435;BME280;45241;49.768;8.636;2023-02-13T14:44:23;102087.81;;;18.17;48.95
59435;BME280;45241;49.768;8.636;2023-02-13T14:46:50;102100.00;;;18.84;48.46
59435;BME280;45241;49.768;8.636;2023-02-13T14:49:19;102095.22;;;18.58;48.72
59435;BME280;45241;49.768;8.636;2023-02-13T14:51:50;102093.09;;;18.82;48.70
59435;BME280;45241;49.768;8.636;2023-02-13T14:54:32;102090.91;;;18.14;49.43
59435;BME280;45241;49.768;8.636;2023-02-13T14:57:04;102085.03;;;18.11;49.00
59435;BME280;45241;49.768;8.636;2023-02-13T14:59:34;102084.44;;;18.15;48.02
59435;BME280;45241;49.768;8.636;2023-02-13T15:02:12;102086.81;;;18.53;48.45
59435;BME280;45241;49.768;8.636;2023-02-13T15:04:41;102078.03;;;18.51;48.79
59435;BME280;45241;49.768;8.636;2023-02-13T15:07:19;102078.00;;;19.20;46.99
59435;BME280;45241;49.768;8.636;2023-02-13T15:10:06;102074.31;;;18.59;47.17
59435;BME280;45241;49.768;8.636;2023-02-13T15:12:39;102075.78;;;17.77;49.24
59435;BME280;45241;49.768;8.636;2023-02-13T15:15:34;102079.56;;;18.95;47.00
59435;BME280;45241;49.768;8.636;2023-02-13T15:18:02;102078.69;;;19.35;46.98
59435;BME280;45241;49.768;8.636;2023-02-13T15:20:37;102072.97;;;19.17;46.53
59435;BME280;45241;49.768;8.636;2023-02-13T15:23:05;102073.47;;;18.86;47.49